Sacramento-Mather, California
Current Conditions -  °F | °C
As of 8:46 PM on Sunday 25 Jan 2015 (Local Time) from KMHR Reporting Station
Haze Haze  
Wind Chill: 45°   Ceiling: Unl
Heat Index: 45°   Visibility: 5mi
Dew Point: 45°   Wind: 0mph
Humidity: 100%   Direction: NA
Pressure: 30.07"   Gusts: NA
Location:  38.55°N, 121.3°W
Report Text: KMHR 260446Z 00000KT 5SM BR SKC 07/07 A3007
Loading
Personal Weather Stations






























Interactive Weather Map New forecast layout! Learn more

10-Day Weather Forecast

Advertisements
Track Severe Weather on mobile